createdAt,value
2019-05-22T00:00:30.884Z,12.50
2019-05-22T00:03:19.986Z,12.40
2019-05-22T00:05:49.987Z,12.40
2019-05-22T00:08:19.379Z,12.40
2019-05-22T00:10:49.587Z,12.40
2019-05-22T00:13:23.080Z,12.40
2019-05-22T00:15:51.960Z,12.40
2019-05-22T00:18:22.235Z,12.30
2019-05-22T00:20:51.366Z,12.30
2019-05-22T00:23:21.618Z,12.30
2019-05-22T00:25:50.910Z,12.30
2019-05-22T00:28:19.449Z,12.30
2019-05-22T00:30:49.250Z,12.30
2019-05-22T00:33:18.092Z,12.30
2019-05-22T00:35:47.783Z,12.30
2019-05-22T00:38:17.942Z,12.30
2019-05-22T00:40:51.105Z,12.30
2019-05-22T00:43:21.444Z,12.30
2019-05-22T00:45:50.787Z,12.30
2019-05-22T00:48:22.030Z,12.30
2019-05-22T00:51:00.776Z,12.30
2019-05-22T00:53:49.085Z,12.30
2019-05-22T00:56:31.660Z,12.30
2019-05-22T00:59:08.193Z,12.30
2019-05-22T01:01:40.171Z,12.30
2019-05-22T01:04:11.785Z,12.30
2019-05-22T01:06:40.251Z,12.20
2019-05-22T01:09:10.613Z,12.20
2019-05-22T01:11:39.432Z,12.30
2019-05-22T01:14:09.282Z,12.20
2019-05-22T01:16:39.504Z,12.30
2019-05-22T01:19:08.222Z,12.30
2019-05-22T01:21:38.108Z,12.30
2019-05-22T01:24:07.605Z,12.30
2019-05-22T01:26:36.606Z,12.30
2019-05-22T01:29:05.856Z,12.20
2019-05-22T01:31:41.821Z,12.20
2019-05-22T01:34:16.364Z,12.30
2019-05-22T01:36:46.760Z,12.20
2019-05-22T01:39:31.600Z,12.20
2019-05-22T01:42:01.961Z,12.20
2019-05-22T01:44:30.816Z,12.10
2019-05-22T01:47:04.039Z,12.10
2019-05-22T01:49:35.346Z,12.10
2019-05-22T01:52:03.984Z,12.10
2019-05-22T01:54:32.524Z,12.10
2019-05-22T01:57:06.971Z,12.00
2019-05-22T01:59:36.639Z,12.00
2019-05-22T02:02:08.748Z,12.00
2019-05-22T02:04:38.527Z,12.00
2019-05-22T02:07:09.142Z,12.10
2019-05-22T02:09:41.205Z,12.00
2019-05-22T02:12:22.918Z,12.00
2019-05-22T02:14:51.864Z,12.00
2019-05-22T02:17:23.940Z,11.90
2019-05-22T02:19:52.360Z,11.90
2019-05-22T02:22:22.016Z,11.90
2019-05-22T02:24:51.752Z,11.90
2019-05-22T02:27:21.094Z,11.80
2019-05-22T02:29:51.944Z,11.90
2019-05-22T02:32:20.966Z,11.80
2019-05-22T02:34:50.025Z,11.80
2019-05-22T02:37:19.371Z,11.70
2019-05-22T02:39:48.967Z,11.70
2019-05-22T02:42:29.753Z,11.70
2019-05-22T02:44:58.610Z,11.70
2019-05-22T02:47:27.146Z,11.60
2019-05-22T02:49:58.117Z,11.60
2019-05-22T02:52:27.037Z,11.60
2019-05-22T02:54:55.493Z,11.60
2019-05-22T02:57:26.270Z,11.60
2019-05-22T02:59:55.570Z,11.50
2019-05-22T03:02:25.293Z,11.60
2019-05-22T03:05:00.231Z,11.50
2019-05-22T03:07:31.410Z,11.60
2019-05-22T03:10:01.622Z,11.60
2019-05-22T03:12:32.421Z,11.50
2019-05-22T03:15:02.115Z,11.50
2019-05-22T03:17:31.533Z,11.40
2019-05-22T03:20:04.611Z,11.40
2019-05-22T03:22:56.965Z,11.40
2019-05-22T03:25:27.084Z,11.40
2019-05-22T03:27:56.233Z,11.30
2019-05-22T03:30:36.673Z,11.30
2019-05-22T03:33:07.747Z,11.30
2019-05-22T03:35:46.898Z,11.30
2019-05-22T03:38:17.580Z,11.30
2019-05-22T03:40:46.375Z,11.20
2019-05-22T03:43:18.702Z,11.20
2019-05-22T03:45:47.813Z,11.20
2019-05-22T03:48:16.745Z,11.20
2019-05-22T03:50:46.669Z,11.20
2019-05-22T03:53:18.088Z,11.20
2019-05-22T03:55:47.694Z,11.20
2019-05-22T03:58:18.266Z,11.20
2019-05-22T04:00:47.382Z,11.20
2019-05-22T04:03:17.565Z,11.30
2019-05-22T04:05:47.453Z,11.30
2019-05-22T04:08:17.182Z,11.30
2019-05-22T04:11:01.938Z,11.30
2019-05-22T04:13:32.056Z,11.30
2019-05-22T04:16:03.517Z,11.30
2019-05-22T04:18:32.812Z,11.30
2019-05-22T04:21:03.058Z,11.30
2019-05-22T04:23:32.220Z,11.40
2019-05-22T04:26:01.549Z,11.40
2019-05-22T04:28:30.855Z,11.40
2019-05-22T04:31:00.188Z,11.40
2019-05-22T04:33:30.725Z,11.40
2019-05-22T04:36:01.827Z,11.40
2019-05-22T04:38:31.278Z,11.30
2019-05-22T04:41:02.105Z,11.40
2019-05-22T04:43:33.906Z,11.40
2019-05-22T04:46:03.572Z,11.30
2019-05-22T04:48:34.980Z,11.40
2019-05-22T04:51:22.531Z,11.40
2019-05-22T04:53:51.238Z,11.40
2019-05-22T04:56:20.170Z,11.40
2019-05-22T04:58:48.899Z,11.50
2019-05-22T05:01:19.448Z,11.50
2019-05-22T05:03:47.907Z,11.50
2019-05-22T05:06:18.196Z,11.50
2019-05-22T05:08:47.316Z,11.50
2019-05-22T05:11:15.968Z,11.50
2019-05-22T05:13:44.404Z,11.50
2019-05-22T05:16:12.855Z,11.50
2019-05-22T05:18:41.328Z,11.50
2019-05-22T05:21:09.847Z,11.50
2019-05-22T05:23:38.373Z,11.50
2019-05-22T05:26:07.277Z,11.60
2019-05-22T05:28:36.156Z,11.60
2019-05-22T05:31:04.840Z,11.60
2019-05-22T05:33:37.261Z,11.60
2019-05-22T05:36:07.094Z,11.60
2019-05-22T05:38:38.317Z,11.60
2019-05-22T05:41:07.286Z,11.50
2019-05-22T05:43:36.309Z,11.50
2019-05-22T05:46:05.226Z,11.50
2019-05-22T05:48:35.003Z,11.50
2019-05-22T05:51:09.868Z,11.50
2019-05-22T05:53:58.397Z,11.50
2019-05-22T05:56:30.158Z,11.50
2019-05-22T05:59:00.222Z,11.60
2019-05-22T06:01:30.447Z,11.60
2019-05-22T06:04:00.337Z,11.70
2019-05-22T06:06:34.702Z,11.70
2019-05-22T06:09:04.879Z,11.80
2019-05-22T06:11:43.191Z,11.80
2019-05-22T06:14:23.703Z,11.80
2019-05-22T06:16:55.883Z,11.90
2019-05-22T06:19:25.976Z,11.90
2019-05-22T06:21:54.485Z,11.90
2019-05-22T06:24:33.015Z,11.90
2019-05-22T06:27:05.584Z,11.90
2019-05-22T06:29:43.192Z,11.90
2019-05-22T06:32:37.496Z,11.90
2019-05-22T06:35:07.633Z,12.00
2019-05-22T06:37:51.075Z,12.00
2019-05-22T06:40:19.613Z,12.00
2019-05-22T06:43:06.607Z,12.00
2019-05-22T06:45:35.732Z,12.00
2019-05-22T06:48:05.024Z,12.10
2019-05-22T06:50:33.579Z,12.10
2019-05-22T06:53:09.802Z,12.10
2019-05-22T06:55:32.724Z,12.10
2019-05-22T06:58:01.446Z,12.10
2019-05-22T07:00:30.661Z,12.10
2019-05-22T07:02:59.172Z,12.00
2019-05-22T07:05:28.365Z,12.10
2019-05-22T07:07:57.076Z,12.10
2019-05-22T07:10:25.840Z,12.10
2019-05-22T07:12:54.365Z,12.20
2019-05-22T07:15:25.290Z,12.30
2019-05-22T07:17:54.708Z,12.30
2019-05-22T07:20:23.936Z,12.30
2019-05-22T07:22:53.065Z,12.40
2019-05-22T07:25:22.732Z,12.40
2019-05-22T07:27:51.212Z,12.40
2019-05-22T07:30:19.946Z,12.30
2019-05-22T07:32:48.392Z,12.40
2019-05-22T07:35:17.281Z,12.40
2019-05-22T07:37:47.016Z,12.50
2019-05-22T07:40:16.016Z,12.60
2019-05-22T07:42:45.019Z,12.70
2019-05-22T07:45:15.101Z,12.70
2019-05-22T07:47:43.925Z,12.70
2019-05-22T07:50:13.295Z,12.80
2019-05-22T07:52:42.490Z,12.90
2019-05-22T07:55:11.281Z,13.00
2019-05-22T07:57:42.249Z,13.00
2019-05-22T08:00:11.586Z,13.10
2019-05-22T08:02:46.276Z,13.30
2019-05-22T08:05:15.337Z,13.40
2019-05-22T08:07:44.507Z,13.60
2019-05-22T08:10:15.658Z,13.70
2019-05-22T08:12:45.109Z,13.80
2019-05-22T08:15:14.282Z,13.80
2019-05-22T08:17:42.929Z,13.90
2019-05-22T08:20:12.375Z,14.00
2019-05-22T08:22:41.465Z,14.10
2019-05-22T08:25:11.552Z,14.20
2019-05-22T08:27:41.340Z,14.20
2019-05-22T08:30:10.694Z,14.10
2019-05-22T08:32:39.685Z,14.20
2019-05-22T08:35:12.913Z,14.20
2019-05-22T08:37:41.685Z,14.20
2019-05-22T08:40:12.983Z,14.30
2019-05-22T08:42:42.424Z,14.50
2019-05-22T08:45:12.988Z,14.60
2019-05-22T08:47:41.664Z,14.70
2019-05-22T08:50:14.834Z,14.70
2019-05-22T08:52:43.908Z,14.80
2019-05-22T08:55:13.208Z,14.90
2019-05-22T08:57:42.556Z,15.00
2019-05-22T09:00:18.885Z,15.10
2019-05-22T09:02:47.388Z,15.10
2019-05-22T09:05:16.006Z,15.10
2019-05-22T09:07:45.376Z,15.30
2019-05-22T09:10:14.435Z,15.40
2019-05-22T09:12:43.200Z,15.60
2019-05-22T09:15:13.095Z,15.80
2019-05-22T09:17:42.110Z,16.20
2019-05-22T09:20:11.950Z,16.70
2019-05-22T09:22:41.595Z,16.70
2019-05-22T09:25:12.620Z,16.70
2019-05-22T09:27:41.818Z,17.00
2019-05-22T09:30:10.984Z,17.40
2019-05-22T09:32:39.734Z,17.70
2019-05-22T09:35:08.581Z,17.80
2019-05-22T09:37:37.186Z,18.30
2019-05-22T09:40:08.684Z,19.10
2019-05-22T09:42:38.011Z,19.80
2019-05-22T09:45:08.871Z,20.30
2019-05-22T09:47:39.077Z,20.50
2019-05-22T09:50:12.183Z,20.10
2019-05-22T09:52:56.343Z,20.50
2019-05-22T09:55:15.132Z,20.40
2019-05-22T09:57:44.044Z,19.80
2019-05-22T10:00:13.448Z,19.50
2019-05-22T10:02:42.879Z,19.40
2019-05-22T10:05:12.227Z,19.50
2019-05-22T10:07:57.760Z,20.30
2019-05-22T10:10:13.342Z,20.90
2019-05-22T10:12:42.094Z,20.20
2019-05-22T10:15:11.912Z,19.90
2019-05-22T10:17:46.123Z,20.50
2019-05-22T10:20:15.139Z,21.10
2019-05-22T10:22:43.652Z,21.70
2019-05-22T10:25:16.349Z,21.80
2019-05-22T10:27:42.909Z,21.30
2019-05-22T10:30:16.470Z,20.90
2019-05-22T10:32:45.044Z,20.50
2019-05-22T10:35:14.724Z,20.70
2019-05-22T10:37:43.300Z,21.60
2019-05-22T10:40:13.216Z,22.20
2019-05-22T10:42:45.016Z,22.40
2019-05-22T10:45:13.452Z,22.80
2019-05-22T10:47:43.654Z,22.90
2019-05-22T10:50:13.441Z,23.30
2019-05-22T10:52:42.424Z,23.60
2019-05-22T10:55:13.031Z,24.00
2019-05-22T10:57:42.669Z,23.50
2019-05-22T11:00:12.849Z,22.60
2019-05-22T11:02:41.731Z,22.30
2019-05-22T11:05:11.210Z,22.90
2019-05-22T11:07:42.714Z,23.40
2019-05-22T11:10:12.286Z,24.00
2019-05-22T11:12:41.006Z,24.20
2019-05-22T11:15:10.670Z,24.20
2019-05-22T11:17:39.740Z,24.50
2019-05-22T11:20:11.007Z,24.80
2019-05-22T11:22:39.616Z,25.00
2019-05-22T11:25:10.068Z,24.40
2019-05-22T11:27:39.982Z,24.30
2019-05-22T11:30:11.246Z,24.70
2019-05-22T11:32:40.202Z,24.90
2019-05-22T11:35:10.273Z,24.10
2019-05-22T11:37:39.433Z,23.40
2019-05-22T11:40:08.948Z,23.40
2019-05-22T11:42:39.242Z,23.10
2019-05-22T11:45:08.820Z,23.60
2019-05-22T11:47:37.412Z,24.10
2019-05-22T11:50:08.298Z,24.20
2019-05-22T11:52:37.127Z,23.90
2019-05-22T11:55:06.604Z,23.70
2019-05-22T11:57:37.851Z,23.70
2019-05-22T12:00:09.419Z,23.80
2019-05-22T12:02:39.403Z,24.30
2019-05-22T12:05:10.501Z,24.30
2019-05-22T12:07:41.039Z,23.70
2019-05-22T12:10:10.976Z,23.80
2019-05-22T12:12:40.388Z,24.40
2019-05-22T12:15:10.553Z,24.40
2019-05-22T12:17:39.319Z,24.50
2019-05-22T12:20:10.142Z,24.80
2019-05-22T12:22:38.720Z,25.30
2019-05-22T12:25:09.076Z,25.80
2019-05-22T12:27:38.163Z,25.30
2019-05-22T12:30:07.457Z,25.20
2019-05-22T12:32:36.621Z,25.00
2019-05-22T12:35:06.766Z,24.90
2019-05-22T12:37:35.670Z,25.00
2019-05-22T12:40:07.227Z,25.00
2019-05-22T12:42:36.269Z,25.00
2019-05-22T12:45:07.157Z,24.30
2019-05-22T12:47:35.592Z,23.90
2019-05-22T12:50:06.642Z,23.60
2019-05-22T12:52:35.340Z,24.30
2019-05-22T12:55:05.687Z,24.40
2019-05-22T12:57:34.701Z,24.00
2019-05-22T13:00:05.562Z,24.00
2019-05-22T13:02:34.706Z,24.80
2019-05-22T13:05:04.078Z,25.80
2019-05-22T13:07:34.240Z,25.60
2019-05-22T13:10:05.083Z,24.90
2019-05-22T13:12:34.635Z,23.90
2019-05-22T13:15:09.597Z,23.50
2019-05-22T13:17:35.667Z,23.50
2019-05-22T13:20:07.680Z,24.00
2019-05-22T13:22:38.030Z,23.80
2019-05-22T13:25:10.801Z,23.40
2019-05-22T13:27:39.736Z,23.50
2019-05-22T13:30:10.932Z,23.60
2019-05-22T13:32:44.733Z,23.30
2019-05-22T13:35:15.170Z,23.00
2019-05-22T13:37:44.310Z,22.80
2019-05-22T13:40:27.108Z,22.70
2019-05-22T13:42:44.964Z,23.10
2019-05-22T13:45:28.807Z,23.10
2019-05-22T13:47:45.913Z,23.60
2019-05-22T13:50:17.040Z,24.30
2019-05-22T13:52:46.537Z,24.80
2019-05-22T13:55:15.951Z,25.00
2019-05-22T13:57:44.575Z,25.00
2019-05-22T14:00:16.465Z,24.90
2019-05-22T14:02:44.974Z,24.90
2019-05-22T14:05:16.640Z,24.50
2019-05-22T14:07:45.729Z,24.00
2019-05-22T14:10:14.858Z,23.40
2019-05-22T14:12:43.537Z,23.20
2019-05-22T14:15:13.113Z,23.60
2019-05-22T14:17:41.641Z,23.80
2019-05-22T14:20:11.773Z,24.00
2019-05-22T14:22:40.232Z,24.20
2019-05-22T14:25:08.896Z,24.20
2019-05-22T14:27:41.565Z,24.30
2019-05-22T14:30:11.640Z,24.20
2019-05-22T14:32:40.543Z,24.40
2019-05-22T14:35:10.708Z,24.50
2019-05-22T14:37:40.264Z,24.50
2019-05-22T14:40:09.472Z,24.30
2019-05-22T14:42:38.408Z,24.20
2019-05-22T14:45:08.062Z,23.90
2019-05-22T14:47:36.819Z,23.90
2019-05-22T14:50:07.688Z,24.20
2019-05-22T14:52:36.448Z,24.20
2019-05-22T14:55:10.155Z,24.20
2019-05-22T14:57:38.848Z,24.20
2019-05-22T15:00:10.562Z,24.00
2019-05-22T15:02:39.085Z,23.80
2019-05-22T15:05:08.458Z,23.80
2019-05-22T15:07:37.215Z,23.60
2019-05-22T15:10:08.413Z,23.20
2019-05-22T15:12:37.210Z,22.90
2019-05-22T15:15:07.011Z,23.10
2019-05-22T15:17:36.106Z,23.50
2019-05-22T15:20:07.920Z,23.50
2019-05-22T15:22:36.984Z,23.30
2019-05-22T15:25:07.801Z,23.40
2019-05-22T15:27:36.965Z,23.60
2019-05-22T15:30:07.135Z,23.50
2019-05-22T15:32:35.760Z,23.50
2019-05-22T15:35:05.629Z,23.20
2019-05-22T15:37:36.103Z,23.10
2019-05-22T15:40:06.895Z,23.20
2019-05-22T15:42:43.208Z,23.10
2019-05-22T15:45:14.450Z,23.10
2019-05-22T15:47:54.683Z,23.20
2019-05-22T15:50:19.433Z,23.30
2019-05-22T15:52:50.086Z,23.30
2019-05-22T15:55:20.720Z,23.10
2019-05-22T15:57:49.333Z,22.80
2019-05-22T16:00:22.156Z,22.50
2019-05-22T16:02:51.230Z,22.40
2019-05-22T16:05:22.145Z,22.30
2019-05-22T16:07:52.849Z,22.30
2019-05-22T16:10:23.719Z,22.20
2019-05-22T16:12:54.198Z,22.10
2019-05-22T16:15:26.626Z,22.10
2019-05-22T16:18:10.988Z,22.10
2019-05-22T16:20:32.542Z,22.00
2019-05-22T16:23:01.190Z,21.80
2019-05-22T16:25:30.338Z,21.70
2019-05-22T16:27:59.603Z,21.60
2019-05-22T16:30:28.386Z,21.60
2019-05-22T16:32:56.920Z,21.50
2019-05-22T16:35:26.062Z,21.40
2019-05-22T16:37:56.916Z,21.50
2019-05-22T16:40:28.159Z,21.50
2019-05-22T16:42:58.836Z,21.60
2019-05-22T16:45:28.024Z,21.60
2019-05-22T16:47:58.013Z,21.70
2019-05-22T16:50:28.026Z,21.70
2019-05-22T16:52:58.774Z,21.50
2019-05-22T16:55:30.019Z,21.50
2019-05-22T16:57:58.544Z,21.30
2019-05-22T17:00:29.518Z,21.30
2019-05-22T17:02:59.356Z,21.10
2019-05-22T17:05:28.118Z,20.80
2019-05-22T17:07:57.510Z,20.90
2019-05-22T17:10:26.656Z,20.80
2019-05-22T17:12:55.293Z,20.80
2019-05-22T17:15:24.080Z,20.80
2019-05-22T17:17:53.407Z,20.80
2019-05-22T17:20:23.761Z,20.90
2019-05-22T17:22:52.319Z,20.90
2019-05-22T17:25:21.119Z,20.90
2019-05-22T17:27:49.875Z,20.80
2019-05-22T17:30:20.868Z,20.70
2019-05-22T17:32:49.707Z,20.70
2019-05-22T17:35:19.280Z,20.60
2019-05-22T17:37:48.075Z,20.40
2019-05-22T17:40:18.639Z,20.40
2019-05-22T17:42:48.492Z,20.30
2019-05-22T17:45:20.245Z,20.30
2019-05-22T17:47:50.154Z,20.20
2019-05-22T17:50:26.551Z,20.10
2019-05-22T17:52:50.605Z,20.10
2019-05-22T17:55:23.771Z,19.90
2019-05-22T17:57:52.555Z,19.80
2019-05-22T18:00:31.988Z,19.60
2019-05-22T18:03:02.773Z,19.50
2019-05-22T18:05:31.557Z,19.50
2019-05-22T18:08:00.018Z,19.40
2019-05-22T18:10:31.459Z,19.40
2019-05-22T18:13:00.433Z,19.40
2019-05-22T18:15:29.187Z,19.30
2019-05-22T18:17:58.091Z,19.30
2019-05-22T18:20:41.741Z,19.20
2019-05-22T18:22:58.520Z,19.10
2019-05-22T18:25:27.142Z,19.10
2019-05-22T18:27:56.175Z,19.00
2019-05-22T18:30:25.752Z,19.00
2019-05-22T18:32:54.292Z,18.90
2019-05-22T18:35:22.811Z,18.90
2019-05-22T18:37:51.318Z,18.90
2019-05-22T18:40:20.040Z,18.90
2019-05-22T18:42:48.749Z,18.90
2019-05-22T18:45:18.179Z,18.90
2019-05-22T18:47:46.786Z,18.90
2019-05-22T18:50:15.978Z,18.90
2019-05-22T18:52:47.933Z,18.90
2019-05-22T18:55:16.896Z,18.80
2019-05-22T18:57:45.892Z,18.80
2019-05-22T19:00:16.151Z,18.80
2019-05-22T19:02:44.703Z,18.70
2019-05-22T19:05:13.786Z,18.70
2019-05-22T19:07:42.295Z,18.70
2019-05-22T19:10:12.348Z,18.60
2019-05-22T19:12:41.226Z,18.50
2019-05-22T19:15:10.188Z,18.40
2019-05-22T19:17:38.683Z,18.30
2019-05-22T19:20:07.439Z,18.20
2019-05-22T19:22:36.396Z,18.20
2019-05-22T19:25:05.912Z,18.20
2019-05-22T19:27:34.770Z,18.00
2019-05-22T19:30:04.664Z,18.00
2019-05-22T19:32:33.191Z,18.00
2019-05-22T19:35:01.710Z,17.90
2019-05-22T19:37:30.187Z,17.80
2019-05-22T19:39:58.721Z,17.70
2019-05-22T19:42:27.228Z,17.60
2019-05-22T19:44:56.033Z,17.50
2019-05-22T19:47:24.807Z,17.50
2019-05-22T19:49:53.405Z,17.40
2019-05-22T19:52:27.514Z,17.30
2019-05-22T19:54:52.865Z,17.30
2019-05-22T19:57:21.359Z,17.20
2019-05-22T19:59:50.003Z,17.20
2019-05-22T20:02:18.531Z,17.00
2019-05-22T20:04:47.147Z,17.00
2019-05-22T20:07:15.649Z,16.90
2019-05-22T20:09:45.675Z,16.90
2019-05-22T20:12:14.705Z,16.90
2019-05-22T20:14:43.369Z,17.00
2019-05-22T20:17:12.453Z,17.00
2019-05-22T20:19:41.175Z,17.00
2019-05-22T20:22:10.315Z,17.00
2019-05-22T20:24:38.755Z,16.90
2019-05-22T20:27:09.818Z,17.00
2019-05-22T20:29:41.015Z,17.00
2019-05-22T20:32:13.817Z,17.00
2019-05-22T20:34:42.548Z,17.00
2019-05-22T20:37:11.135Z,17.10
2019-05-22T20:39:40.111Z,17.10
2019-05-22T20:42:09.131Z,17.00
2019-05-22T20:44:38.997Z,17.00
2019-05-22T20:47:08.685Z,17.00
2019-05-22T20:49:38.779Z,17.00
2019-05-22T20:52:10.931Z,17.00
2019-05-22T20:54:39.433Z,16.90
2019-05-22T20:57:08.702Z,16.90
2019-05-22T20:59:38.403Z,17.00
2019-05-22T21:02:08.570Z,16.90
2019-05-22T21:04:38.364Z,16.90
2019-05-22T21:07:08.594Z,17.00
2019-05-22T21:09:37.416Z,17.00
2019-05-22T21:12:06.790Z,16.90
2019-05-22T21:14:35.505Z,16.90
2019-05-22T21:17:05.752Z,16.80
2019-05-22T21:19:36.028Z,16.80
2019-05-22T21:22:06.383Z,16.80
2019-05-22T21:24:36.520Z,16.80
2019-05-22T21:27:07.289Z,16.80
2019-05-22T21:29:35.905Z,16.80
2019-05-22T21:32:05.630Z,16.80
2019-05-22T21:34:34.387Z,16.80
2019-05-22T21:37:05.072Z,16.80
2019-05-22T21:39:33.974Z,16.80
2019-05-22T21:42:02.710Z,16.70
2019-05-22T21:44:31.644Z,16.60
2019-05-22T21:47:00.840Z,16.60
2019-05-22T21:49:29.647Z,16.50
2019-05-22T21:51:58.285Z,16.40
2019-05-22T21:54:26.877Z,16.30
2019-05-22T21:56:55.381Z,16.30
2019-05-22T21:59:23.887Z,16.30
2019-05-22T22:01:54.398Z,16.20
2019-05-22T22:04:26.519Z,16.20
2019-05-22T22:06:55.213Z,16.10
2019-05-22T22:09:23.766Z,16.00
2019-05-22T22:11:52.691Z,15.90
2019-05-22T22:14:22.159Z,15.90
2019-05-22T22:16:51.409Z,15.80
2019-05-22T22:19:20.589Z,15.80
2019-05-22T22:21:49.533Z,15.70
2019-05-22T22:24:18.619Z,15.60
2019-05-22T22:26:48.382Z,15.60
2019-05-22T22:29:17.749Z,15.50
2019-05-22T22:31:47.005Z,15.50
2019-05-22T22:34:18.511Z,15.40
2019-05-22T22:36:47.395Z,15.40
2019-05-22T22:39:17.547Z,15.30
2019-05-22T22:41:47.255Z,15.20
2019-05-22T22:44:16.274Z,15.20
2019-05-22T22:46:55.966Z,15.20
2019-05-22T22:49:27.737Z,15.10
2019-05-22T22:51:57.301Z,15.10
2019-05-22T22:54:25.822Z,15.00
2019-05-22T22:56:54.546Z,15.00
2019-05-22T22:59:23.477Z,14.90
2019-05-22T23:01:55.603Z,14.90
2019-05-22T23:04:24.584Z,14.90
2019-05-22T23:06:55.611Z,14.90
2019-05-22T23:09:24.524Z,14.90
2019-05-22T23:11:55.088Z,14.80
2019-05-22T23:14:24.152Z,14.70
2019-05-22T23:16:53.043Z,14.50
2019-05-22T23:19:33.567Z,14.40
2019-05-22T23:22:02.624Z,14.40
2019-05-22T23:24:32.802Z,14.40
2019-05-22T23:27:01.503Z,14.40
2019-05-22T23:29:30.677Z,14.40
2019-05-22T23:32:00.578Z,14.20
2019-05-22T23:34:29.294Z,14.20
2019-05-22T23:36:58.897Z,14.20
2019-05-22T23:39:30.569Z,14.20
2019-05-22T23:42:02.106Z,14.20
2019-05-22T23:44:33.054Z,14.20
2019-05-22T23:47:02.176Z,14.20
2019-05-22T23:49:31.337Z,14.20
2019-05-22T23:51:59.780Z,14.10
2019-05-22T23:54:30.544Z,14.10
2019-05-22T23:57:00.596Z,14.10
2019-05-22T23:59:30.914Z,14.00
